首页
METAR-TAF:

METAR-TAF

机场 :

埃克塞特國際機場

埃克塞特, 英格兰

纬度: 50-44N, 经度: 003-25W, 海拔: 30米

当前天气观测

该预报发布于55分钟前的02:20 UTC
风速5节,风向北转西北
温度 1°C
湿度 100%
气压 1036 hPa
能见度10公里或以上
1500米以下无云,无积雨云

METAR: EGTE 260220Z 34005KT CAVOK 01/01 Q1036

时间: 03:15 (03:15 UTC)

预报

该预报发布于4小时和13分钟前的23:02 UTC
预报有效从26日的 00点(UTC)到 26日的 04点(UTC)
风速3节,风向西转西北
能见度10公里或以上
散云层高于2000英尺
短暂存在
从 26日的 00点(UTC)到 26日的 04点(UTC)
能見度: 7000
几率 40% :
短暂存在
从 26日的 02点(UTC)到 26日的 04点(UTC)
能見度: 1200
轻雾

TAF: EGTE 252302Z 2600/2604 30003KT 9999 SCT020 TEMPO 2600/2604 7000 PROB40 TEMPO 2602/2604 1200 BR

超过4000个机场的气象观测和天气预报(METAR&TAF报告)。

可查询的气象台以黄色和红色小点在地图上表示。

将鼠标移到小点上方,可查看气象台名称。

然后点击查看天气观测和预报。

如需切换地图:点击带黑十字的绿色按钮放大地图;点击带横线的绿色按钮缩小地图;或者点击绿色箭头查看邻近地区的地图。


METAR-TAF: